Chang Rong 3 — BZYC9 — position and weather

sailwx.info

Track history (hours):
 
Tides and Currents Weather Stations Pressure Air Temp Water Temp Dewpoint Dewpoint Depression Visibility Wind Speed Wind Dir Waves Ship Positions

Chang Rong 3

Last reported at 2017-Sep-11 22:52 UTC. Time now 2017-Nov-22 16:37 UTC.
Position N 27°50' W 015°18'.
Warning: this ship's position is months out of date.

Length 50 m.

Type: Fishing. MMSI: 412283999.

Date/timePositionNaut miles runAvg speedWind from/ knotsBaromVisibWave heightAir tempDewpointWater temp
2017-Sep-11 22:52N 27°50' W 015°18'410.5
2017-Sep-11 22:30N 27°54' W 015°18'510.4
2017-Sep-11 22:00N 27°59' W 015°18'5 9.8
2017-Sep-11 21:30N 28°04' W 015°20'5 9.5
2017-Sep-11 21:00N 28°07' W 015°24'2 3.6
2017-Sep-11 20:30N 28°09' W 015°24'0 0.0
2017-Sep-11 20:00N 28°09' W 015°24'0 0.0
2017-Sep-11 19:30N 28°09' W 015°24'0 0.0
2017-Sep-11 19:00N 28°09' W 015°24'0 0.0
2017-Sep-11 18:30N 28°09' W 015°24'0 0.0
2017-Sep-11 18:00N 28°09' W 015°24'0 0.0
2017-Sep-11 17:30N 28°09' W 015°24'0 0.0
2017-Sep-11 17:00N 28°09' W 015°24'0 0.0
2017-Sep-11 16:30N 28°09' W 015°24'0 0.0
2017-Sep-11 16:00N 28°09' W 015°24'0 0.0
2017-Sep-11 15:30N 28°09' W 015°24'0 0.7
2017-Sep-11 15:00N 28°08' W 015°25'1 1.3
2017-Sep-11 14:30N 28°08' W 015°25'0 0.8
2017-Sep-11 14:00N 28°09' W 015°25'0 0.0
2017-Sep-11 13:30N 28°09' W 015°25'0 0.0
2017-Sep-11 13:00N 28°09' W 015°25'0 0.0
2017-Sep-11 12:30N 28°09' W 015°25'0 0.0
2017-Sep-11 12:00N 28°09' W 015°25'0 0.0
2017-Sep-11 11:30N 28°09' W 015°25'0 0.0
2017-Sep-11 11:00N 28°09' W 015°25'0 0.0
2017-Sep-11 10:30N 28°09' W 015°25'0 0.0
2017-Sep-11 10:00N 28°09' W 015°25'0 0.0
2017-Sep-11 09:30N 28°09' W 015°25'0 0.0
2017-Sep-11 09:00N 28°09' W 015°25'0 0.0
2017-Sep-11 08:30N 28°09' W 015°25'0 0.0
2017-Sep-11 08:00N 28°09' W 015°25'0 0.0
2017-Sep-11 07:30N 28°09' W 015°25'0 0.0
2017-Sep-11 07:00N 28°09' W 015°25'0 0.0
2017-Sep-11 06:30N 28°09' W 015°25'0 0.0
2017-Sep-11 06:00N 28°09' W 015°25'0 0.0
2017-Sep-11 05:30N 28°09' W 015°25'0 0.0
2017-Sep-11 05:00N 28°09' W 015°25'0 0.0
2017-Sep-11 04:30N 28°09' W 015°25'0 0.0
2017-Sep-11 04:00N 28°09' W 015°25'0 0.0
2017-Sep-11 03:30N 28°09' W 015°25'0 0.0
2017-Sep-11 03:00N 28°09' W 015°25'0 0.0
2017-Sep-11 02:30N 28°09' W 015°25'0 0.0
2017-Sep-11 02:00N 28°09' W 015°25'0 0.0
2017-Sep-11 01:30N 28°09' W 015°25'0 0.0
2017-Sep-11 01:00N 28°09' W 015°25'0 0.0
2017-Sep-11 00:30N 28°09' W 015°25'0 0.0
2017-Sep-11 00:00N 28°09' W 015°25'0 0.0
2017-Sep-10 23:30N 28°09' W 015°25'0 0.0
2017-Sep-10 23:00N 28°09' W 015°25'0 0.0
2017-Sep-10 22:30N 28°09' W 015°25'0 0.0
2017-Sep-10 22:00N 28°09' W 015°25'0 0.0
2017-Sep-10 21:30N 28°09' W 015°25'0 0.0
2017-Sep-10 21:00N 28°09' W 015°25'0 0.0
2017-Sep-10 20:30N 28°09' W 015°25'0 0.0
2017-Sep-10 20:00N 28°09' W 015°25'0 0.0
2017-Sep-10 19:30N 28°09' W 015°25'0 0.0
2017-Sep-10 19:00N 28°09' W 015°25'0 0.0
2017-Sep-10 18:30N 28°09' W 015°25'0 0.0
2017-Sep-10 18:00N 28°09' W 015°25'0 0.0
2017-Sep-10 17:30N 28°09' W 015°25'0 0.0
2017-Sep-10 17:00N 28°09' W 015°25'0 0.0
2017-Sep-10 16:30N 28°09' W 015°25'0 0.0
2017-Sep-10 16:00N 28°09' W 015°25'0 0.0
2017-Sep-10 15:30N 28°09' W 015°25'0 0.0
2017-Sep-10 15:00N 28°09' W 015°25'0 0.0
2017-Sep-10 14:00N 28°09' W 015°25'0 0.0
2017-Sep-10 13:30N 28°09' W 015°25'0 0.0
2017-Sep-10 13:00N 28°09' W 015°25'0 0.0
2017-Sep-10 12:30N 28°09' W 015°25'0 0.0
2017-Sep-10 12:00N 28°09' W 015°25'0 0.0
2017-Sep-10 11:30N 28°09' W 015°25'0 0.0
2017-Sep-10 11:00N 28°09' W 015°25'0 0.0
2017-Sep-10 10:30N 28°09' W 015°25'0 0.0
2017-Sep-10 10:00N 28°09' W 015°25'0 0.0
2017-Sep-10 09:30N 28°09' W 015°25'0 0.0
2017-Sep-10 09:00N 28°09' W 015°25'0 0.0
2017-Sep-10 08:30N 28°09' W 015°25'0 0.0
2017-Sep-10 08:00N 28°09' W 015°25'0 0.0
2017-Sep-10 07:30N 28°09' W 015°25'0 0.0
2017-Sep-10 07:00N 28°09' W 015°25'0 0.0
2017-Sep-10 06:30N 28°09' W 015°25'0 0.0
2017-Sep-10 06:00N 28°09' W 015°25'0 0.0
2017-Sep-10 05:30N 28°09' W 015°25'0 0.0
2017-Sep-10 05:00N 28°09' W 015°25'0 0.0
2017-Sep-10 04:30N 28°09' W 015°25'0 0.0
2017-Sep-10 04:00N 28°09' W 015°25'0 0.0
2017-Sep-10 03:30N 28°09' W 015°25'0 0.0
2017-Sep-10 03:00N 28°09' W 015°25'0 0.0
2017-Sep-10 02:30N 28°09' W 015°25'0 0.0
2017-Sep-10 02:00N 28°09' W 015°25'0 0.0
2017-Sep-10 01:30N 28°09' W 015°25'0 0.0
2017-Sep-10 01:00N 28°09' W 015°25'0 0.0
2017-Sep-10 00:30N 28°09' W 015°25'0 0.0
2017-Sep-10 00:00N 28°09' W 015°25'0 0.0
2017-Sep-09 23:30N 28°09' W 015°25'0 0.0
2017-Sep-09 23:00N 28°09' W 015°25'0 0.0
2017-Sep-09 22:30N 28°09' W 015°25'0 0.0
2017-Sep-09 22:00N 28°09' W 015°25'0 0.0
2017-Sep-09 21:30N 28°09' W 015°25'0 0.0
2017-Sep-09 21:00N 28°09' W 015°25'0 0.0
2017-Sep-09 20:30N 28°09' W 015°25'0 0.0
2017-Sep-09 20:00N 28°09' W 015°25'0 0.0
2017-Sep-09 19:30N 28°09' W 015°25'0 0.0
2017-Sep-09 19:00N 28°09' W 015°25'0 0.0
2017-Sep-09 18:30N 28°09' W 015°25'0 0.0
2017-Sep-09 18:00N 28°09' W 015°25'0 0.0
2017-Sep-09 17:30N 28°09' W 015°25'0 0.0
2017-Sep-09 17:00N 28°09' W 015°25'0 0.0
2017-Sep-09 16:30N 28°09' W 015°25'0 0.0
2017-Sep-09 16:00N 28°09' W 015°25'0 0.0
2017-Sep-09 15:30N 28°09' W 015°25'0 0.0
2017-Sep-09 15:00N 28°09' W 015°25'0 0.0
2017-Sep-09 14:30N 28°09' W 015°25'0 0.0
2017-Sep-09 14:00N 28°09' W 015°25'0 0.0
2017-Sep-09 13:30N 28°09' W 015°25'0 0.0
2017-Sep-09 13:00N 28°09' W 015°25'0 0.0
2017-Sep-09 12:30N 28°09' W 015°25'0 0.0
2017-Sep-09 12:00N 28°09' W 015°25'0 0.0
2017-Sep-09 11:30N 28°09' W 015°25'0 0.0
2017-Sep-09 11:00N 28°09' W 015°25'0 0.0
2017-Sep-09 10:30N 28°09' W 015°25'0 0.0
2017-Sep-09 10:00N 28°09' W 015°25'0 0.0
2017-Sep-09 09:30N 28°09' W 015°25'0 0.0
2017-Sep-09 09:00N 28°09' W 015°25'0 0.0
2017-Sep-09 08:30N 28°09' W 015°25'0 0.0
2017-Sep-09 08:00N 28°09' W 015°25'0 0.0
2017-Sep-09 07:30N 28°09' W 015°25'0 0.0
2017-Sep-09 07:00N 28°09' W 015°25'0 0.0
2017-Sep-09 06:30N 28°09' W 015°25'0 0.0
2017-Sep-09 06:00N 28°09' W 015°25'0 0.0
2017-Sep-09 05:30N 28°09' W 015°25'0 0.0
2017-Sep-09 05:00N 28°09' W 015°25'0 0.0
2017-Sep-09 04:30N 28°09' W 015°25'0 0.0
2017-Sep-09 04:00N 28°09' W 015°25'0 0.0
2017-Sep-09 03:30N 28°09' W 015°25'0 0.0
2017-Sep-09 03:00N 28°09' W 015°25'0 0.0
2017-Sep-09 02:30N 28°09' W 015°25'0 0.0
2017-Sep-09 02:00N 28°09' W 015°25'0 0.0
2017-Sep-09 01:30N 28°09' W 015°25'0 0.0
2017-Sep-09 01:00N 28°09' W 015°25'0 0.0
2017-Sep-09 00:30N 28°09' W 015°25'0 0.0
2017-Sep-09 00:00N 28°09' W 015°25'0 0.0
2017-Sep-08 23:30N 28°09' W 015°25'0 0.0
2017-Sep-08 23:00N 28°09' W 015°25'0 0.0
2017-Sep-08 22:30N 28°09' W 015°25'0 0.0
2017-Sep-08 22:00N 28°09' W 015°25'0 0.0
2017-Sep-08 21:30N 28°09' W 015°25'0 0.0
2017-Sep-08 21:00N 28°09' W 015°25'0 0.0
2017-Sep-08 20:30N 28°09' W 015°25'0 0.0
2017-Sep-08 20:00N 28°09' W 015°25'0 0.0
2017-Sep-08 19:30N 28°09' W 015°25'0 0.0
2017-Sep-08 19:00N 28°09' W 015°25'0 0.0
2017-Sep-08 18:30N 28°09' W 015°25'0 0.0
2017-Sep-08 18:00N 28°09' W 015°25'0 0.0
2017-Sep-08 17:30N 28°09' W 015°25'0 0.0
2017-Sep-08 17:00N 28°09' W 015°25'0 0.0
2017-Sep-08 16:30N 28°09' W 015°25'0 0.0
2017-Sep-08 16:00N 28°09' W 015°25'0 0.0
2017-Sep-08 15:30N 28°09' W 015°25'0 0.0
2017-Sep-08 15:00N 28°09' W 015°25'0 0.0
2017-Sep-08 14:30N 28°09' W 015°25'0 0.0
2017-Sep-08 14:00N 28°09' W 015°25'0 0.0
2017-Sep-08 13:30N 28°09' W 015°25'0 0.0
2017-Sep-08 13:00N 28°09' W 015°25'0 0.0
2017-Sep-08 12:30N 28°09' W 015°25'0 0.0
2017-Sep-08 12:00N 28°09' W 015°25'0 0.0
2017-Sep-08 11:30N 28°09' W 015°25'0 0.0
2017-Sep-08 11:00N 28°09' W 015°25'0 0.0
2017-Sep-08 10:30N 28°09' W 015°25'0 0.0
2017-Sep-08 10:00N 28°09' W 015°25'0 0.0
2017-Sep-08 09:30N 28°09' W 015°25'0 0.0
2017-Sep-08 09:00N 28°09' W 015°25'0 0.0
2017-Sep-08 08:30N 28°09' W 015°25'0 0.0
2017-Sep-08 08:00N 28°09' W 015°25'0 0.0
2017-Sep-08 07:30N 28°09' W 015°25'0 0.0
2017-Sep-08 07:00N 28°09' W 015°25'0 0.0
2017-Sep-08 06:30N 28°09' W 015°25'0 0.0
2017-Sep-08 06:00N 28°09' W 015°25'0 0.0
2017-Sep-08 05:30N 28°09' W 015°25'0 0.0
2017-Sep-08 05:00N 28°09' W 015°25'0 0.0
2017-Sep-08 04:30N 28°09' W 015°25'0 0.0
2017-Sep-08 04:00N 28°09' W 015°25'0 0.0
2017-Sep-08 03:30N 28°09' W 015°25'0 0.0
2017-Sep-08 03:00N 28°09' W 015°25'0 0.0
2017-Sep-08 02:30N 28°09' W 015°25'0 0.0
2017-Sep-08 02:00N 28°09' W 015°25'0 0.0
2017-Sep-08 01:30N 28°09' W 015°25'0 0.0
2017-Sep-08 01:00N 28°09' W 015°25'0 0.0
2017-Sep-08 00:30N 28°09' W 015°25'0 0.0
2017-Sep-08 00:00N 28°09' W 015°25'0 0.0
2017-Sep-07 23:30N 28°09' W 015°25'0 0.0
2017-Sep-07 23:00N 28°09' W 015°25'0 0.0
2017-Sep-07 22:30N 28°09' W 015°25'0 0.0
2017-Sep-07 22:00N 28°09' W 015°25'0 0.0
2017-Sep-07 21:30N 28°09' W 015°25'0 0.0
2017-Sep-07 21:00N 28°09' W 015°25'0 0.0
2017-Sep-07 20:30N 28°09' W 015°25'0 0.0
2017-Sep-07 20:00N 28°09' W 015°25'0 0.0
2017-Sep-07 19:30N 28°09' W 015°25'0 0.0
2017-Sep-07 19:00N 28°09' W 015°25'0 0.0
2017-Sep-07 18:30N 28°09' W 015°25'0 0.0
2017-Sep-07 18:00N 28°09' W 015°25'0 0.0
2017-Sep-07 17:30N 28°09' W 015°25'0 0.0
2017-Sep-07 17:00N 28°09' W 015°25'0 0.0
2017-Sep-07 16:30N 28°09' W 015°25'0 0.0
2017-Sep-07 16:00N 28°09' W 015°25'0 0.0
2017-Sep-07 15:30N 28°09' W 015°25'0 0.0
2017-Sep-07 15:00N 28°09' W 015°25'0 0.0
2017-Sep-07 14:30N 28°09' W 015°25'0 0.0
2017-Sep-07 14:00N 28°09' W 015°25'0 0.0
2017-Sep-07 13:30N 28°09' W 015°25'0 0.0
2017-Sep-07 13:00N 28°09' W 015°25'0 0.0
2017-Sep-07 12:30N 28°09' W 015°25'0 0.0
2017-Sep-07 11:59N 28°09' W 015°25'0 0.0
2017-Sep-07 11:30N 28°09' W 015°25'0 0.0
2017-Sep-07 11:00N 28°09' W 015°25'0 0.0
2017-Sep-07 10:30N 28°09' W 015°25'0 0.0
2017-Sep-07 10:00N 28°09' W 015°25'0 0.0
2017-Sep-07 09:30N 28°09' W 015°25'0 0.0
2017-Sep-07 09:00N 28°09' W 015°25'0 0.0
2017-Sep-07 08:30N 28°09' W 015°25'0 0.0
2017-Sep-07 08:00N 28°09' W 015°25'0 0.0
2017-Sep-07 07:30N 28°09' W 015°25'0 0.0
2017-Sep-07 07:00N 28°09' W 015°25'0 0.0
2017-Sep-07 06:30N 28°09' W 015°25'0 0.0
2017-Sep-07 06:00N 28°09' W 015°25'0 0.0
2017-Sep-07 05:30N 28°09' W 015°25'0 0.0
2017-Sep-07 05:00N 28°09' W 015°25'0 0.0
2017-Sep-07 04:30N 28°09' W 015°25'0 0.0
2017-Sep-07 04:00N 28°09' W 015°25'0 0.0
2017-Sep-07 03:30N 28°09' W 015°25'0 0.0
2017-Sep-07 03:00N 28°09' W 015°25'0 0.0
2017-Sep-07 02:30N 28°09' W 015°25'0 0.0
2017-Sep-07 02:00N 28°09' W 015°25'0 0.0
2017-Sep-07 01:30N 28°09' W 015°25'0 0.0
2017-Sep-07 01:00N 28°09' W 015°25'0 0.0
2017-Sep-07 00:30N 28°09' W 015°25'0 0.0
2017-Sep-07 00:00N 28°09' W 015°25'0 0.0
2017-Sep-06 23:30N 28°09' W 015°25'0 0.0
2017-Sep-06 23:00N 28°09' W 015°25'0 0.0
2017-Sep-06 22:30N 28°09' W 015°25'0 0.0
2017-Sep-06 22:00N 28°09' W 015°25'0 0.0
2017-Sep-06 21:30N 28°09' W 015°25'0 0.0
2017-Sep-06 21:00N 28°09' W 015°25'0 0.0
2017-Sep-06 20:30N 28°09' W 015°25'0 0.0
2017-Sep-06 20:00N 28°09' W 015°25'0 0.0
2017-Sep-06 19:30N 28°09' W 015°25'0 0.0
2017-Sep-06 19:00N 28°09' W 015°25'0 0.0
2017-Sep-06 18:30N 28°09' W 015°25'0 0.0
2017-Sep-06 18:00N 28°09' W 015°25'0 0.0
2017-Sep-06 17:30N 28°09' W 015°25'0 0.0
2017-Sep-06 17:00N 28°09' W 015°25'0 0.0
2017-Sep-06 16:30N 28°09' W 015°25'0 0.0
2017-Sep-06 16:00N 28°09' W 015°25'0 0.0
2017-Sep-06 15:30N 28°09' W 015°25'0 0.0
2017-Sep-06 15:00N 28°09' W 015°25'0 0.0
2017-Sep-06 14:30N 28°09' W 015°25'0 0.0
2017-Sep-06 14:00N 28°09' W 015°25'0 0.0
2017-Sep-06 13:30N 28°09' W 015°25'0 0.0
2017-Sep-06 13:00N 28°09' W 015°25'0 0.0
2017-Sep-06 12:30N 28°09' W 015°25'0 0.0
2017-Sep-06 12:00N 28°09' W 015°25'0 0.0
2017-Sep-06 11:30N 28°09' W 015°25'0 0.0
2017-Sep-06 11:00N 28°09' W 015°25'0 0.0
2017-Sep-06 10:30N 28°09' W 015°25'0 0.0
2017-Sep-06 10:00N 28°09' W 015°25'0 0.0
2017-Sep-06 09:30N 28°09' W 015°25'0 0.0
2017-Sep-06 09:00N 28°09' W 015°25'0 0.0
2017-Sep-06 08:30N 28°09' W 015°25'0 0.0
2017-Sep-06 08:00N 28°09' W 015°25'0 0.0
2017-Sep-06 07:30N 28°09' W 015°25'0 0.0
2017-Sep-06 07:00N 28°09' W 015°25'0 0.0
2017-Sep-06 06:30N 28°09' W 015°25'0 0.0
2017-Sep-06 06:00N 28°09' W 015°25'0 0.0
2017-Sep-06 05:30N 28°09' W 015°25'0 0.0
2017-Sep-06 05:00N 28°09' W 015°25'0 0.0
2017-Sep-06 04:30N 28°09' W 015°25'0 0.0
2017-Sep-06 04:00N 28°09' W 015°25'0 0.0
2017-Sep-06 03:30N 28°09' W 015°25'0 0.0
2017-Sep-06 03:00N 28°09' W 015°25'0 0.0
2017-Sep-06 02:30N 28°09' W 015°25'0 0.0
2017-Sep-06 02:00N 28°09' W 015°25'0 0.0
2017-Sep-06 01:30N 28°09' W 015°25'0 0.0
2017-Sep-06 01:00N 28°09' W 015°25'0 0.0
2017-Sep-06 00:30N 28°09' W 015°25'0 0.0
2017-Sep-06 00:00N 28°09' W 015°25'0 0.0
2017-Sep-05 23:30N 28°09' W 015°25'0 0.0
2017-Sep-05 23:00N 28°09' W 015°25'0 0.0
2017-Sep-05 22:30N 28°09' W 015°25'0 0.0
2017-Sep-05 22:00N 28°09' W 015°25'0 0.0
2017-Sep-05 21:30N 28°09' W 015°25'0 0.0
2017-Sep-05 21:00N 28°09' W 015°25'0 0.0
2017-Sep-05 20:30N 28°09' W 015°25'0 0.0
2017-Sep-05 20:00N 28°09' W 015°25'0 0.0
2017-Sep-05 19:30N 28°09' W 015°25'0 0.0
2017-Sep-05 19:00N 28°09' W 015°25'0 0.0
2017-Sep-05 18:30N 28°09' W 015°25'0 0.0
2017-Sep-05 18:00N 28°09' W 015°25'0 0.0
2017-Sep-05 17:30N 28°09' W 015°25'0 0.0
2017-Sep-05 17:00N 28°09' W 015°25'0 0.0
2017-Sep-05 16:30N 28°09' W 015°25'0 0.0
2017-Sep-05 16:00N 28°09' W 015°25'0 0.0
2017-Sep-05 15:30N 28°09' W 015°25'0 0.0
2017-Sep-05 15:00N 28°09' W 015°25'0 0.0
2017-Sep-05 14:30N 28°09' W 015°25'0 0.0
2017-Sep-05 14:00N 28°09' W 015°25'0 0.0
2017-Sep-05 13:30N 28°09' W 015°25'0 0.0
2017-Sep-05 13:00N 28°09' W 015°25'0 0.0
2017-Sep-05 12:30N 28°09' W 015°25'0 0.0
2017-Sep-05 12:00N 28°09' W 015°25'0 0.0
2017-Sep-05 11:30N 28°09' W 015°25'0 0.0
2017-Sep-05 11:00N 28°09' W 015°25'0 0.0
2017-Sep-05 10:30N 28°09' W 015°25'0 0.0
2017-Sep-05 10:00N 28°09' W 015°25'0 0.0
2017-Sep-05 09:30N 28°09' W 015°25'0 0.0
2017-Sep-05 09:00N 28°09' W 015°25'0 0.0
2017-Sep-05 08:30N 28°09' W 015°25'0 0.0
2017-Sep-05 08:00N 28°09' W 015°25'0 0.0
2017-Sep-05 07:30N 28°09' W 015°25'0 0.0
2017-Sep-05 07:00N 28°09' W 015°25'0 0.0
2017-Sep-05 06:30N 28°09' W 015°25'0 0.0
2017-Sep-05 06:00N 28°09' W 015°25'0 0.0
2017-Sep-05 05:30N 28°09' W 015°25'0 0.0
2017-Sep-05 05:00N 28°09' W 015°25'0 0.0
2017-Sep-05 04:30N 28°09' W 015°25'0 0.0
2017-Sep-05 04:00N 28°09' W 015°25'0 0.0
2017-Sep-05 03:30N 28°09' W 015°25'0 0.0
2017-Sep-05 03:00N 28°09' W 015°25'0 0.0
2017-Sep-05 02:30N 28°09' W 015°25'0 0.0
2017-Sep-05 02:00N 28°09' W 015°25'0 0.0
2017-Sep-05 01:30N 28°09' W 015°25'0 0.0
2017-Sep-05 01:00N 28°09' W 015°25'0 0.0
2017-Sep-05 00:30N 28°09' W 015°25'0 0.0
2017-Sep-05 00:00N 28°09' W 015°25'0 0.0
2017-Sep-04 23:30N 28°09' W 015°25'0 0.0
2017-Sep-04 23:00N 28°09' W 015°25'0 0.0
2017-Sep-04 22:30N 28°09' W 015°25'0 0.0
2017-Sep-04 22:00N 28°09' W 015°25'0 0.0
2017-Sep-04 21:30N 28°09' W 015°25'0 0.0
2017-Sep-04 21:00N 28°09' W 015°25'0 0.0
2017-Sep-04 20:30N 28°09' W 015°25'0 0.0
2017-Sep-04 20:00N 28°09' W 015°25'0 0.0
2017-Sep-04 19:30N 28°09' W 015°25'0 0.0
2017-Sep-04 19:00N 28°09' W 015°25'0 0.0
2017-Sep-04 18:30N 28°09' W 015°25'0 0.0
2017-Sep-04 18:00N 28°09' W 015°25'0 0.0
2017-Sep-04 17:30N 28°09' W 015°25'0 0.0
2017-Sep-04 17:00N 28°09' W 015°25'0 0.0
2017-Sep-04 16:30N 28°09' W 015°25'0 0.0
2017-Sep-04 16:00N 28°09' W 015°25'0 0.0
2017-Sep-04 15:30N 28°09' W 015°25'0 0.0
2017-Sep-04 15:00N 28°09' W 015°25'0 0.0
2017-Sep-04 14:30N 28°09' W 015°25'0 0.0
2017-Sep-04 14:00N 28°09' W 015°25'0 0.0
2017-Sep-04 13:30N 28°09' W 015°25'0 0.0
2017-Sep-04 13:00N 28°09' W 015°25'0 0.0
2017-Sep-04 12:30N 28°09' W 015°25'0 0.0
2017-Sep-04 12:00N 28°09' W 015°25'0 0.0
2017-Sep-04 11:30N 28°09' W 015°25'0 0.0
2017-Sep-04 11:00N 28°09' W 015°25'0 0.0
2017-Sep-04 10:30N 28°09' W 015°25'0 0.0
2017-Sep-04 10:00N 28°09' W 015°25'0 0.0
2017-Sep-04 09:30N 28°09' W 015°25'0 0.0
2017-Sep-04 09:00N 28°09' W 015°25'0 0.0
2017-Sep-04 08:30N 28°09' W 015°25'0 0.0
2017-Sep-04 08:00N 28°09' W 015°25'0 0.0
2017-Sep-04 07:30N 28°09' W 015°25'0 0.0
2017-Sep-04 07:00N 28°09' W 015°25'0 0.0
2017-Sep-04 06:30N 28°09' W 015°25'0 0.0
2017-Sep-04 06:00N 28°09' W 015°25'0 0.0
2017-Sep-04 05:30N 28°09' W 015°25'0 0.0
2017-Sep-04 05:00N 28°09' W 015°25'0 0.0
2017-Sep-04 04:30N 28°09' W 015°25'0 0.0
2017-Sep-04 04:00N 28°09' W 015°25'0 0.0
2017-Sep-04 03:30N 28°09' W 015°25'0 0.0
2017-Sep-04 03:00N 28°09' W 015°25'0 0.0
2017-Sep-04 02:30N 28°09' W 015°25'0 0.0
2017-Sep-04 02:00N 28°09' W 015°25'0 0.0
2017-Sep-04 01:30N 28°09' W 015°25'0 0.0
2017-Sep-04 01:00N 28°09' W 015°25'0 0.0
2017-Sep-04 00:30N 28°09' W 015°25'0 0.0
2017-Sep-04 00:00N 28°09' W 015°25'0 0.0
2017-Sep-03 23:31N 28°09' W 015°25'0 0.0
2017-Sep-03 23:01N 28°09' W 015°25'0 0.0
2017-Sep-03 22:30N 28°09' W 015°25'0 0.0
2017-Sep-03 22:01N 28°09' W 015°25'0 0.0
2017-Sep-03 21:30N 28°09' W 015°25'0 0.0
2017-Sep-03 21:01N 28°09' W 015°25'0 0.0
2017-Sep-03 20:31N 28°09' W 015°25'0 0.0
2017-Sep-03 20:01N 28°09' W 015°25'0 0.0
2017-Sep-03 19:31N 28°09' W 015°25'0 0.0
2017-Sep-03 19:01N 28°09' W 015°25'0 0.0
2017-Sep-03 18:31N 28°09' W 015°25'0 0.0
2017-Sep-03 18:00N 28°09' W 015°25'0 0.0
2017-Sep-03 17:30N 28°09' W 015°25'0 0.0
2017-Sep-03 17:00N 28°09' W 015°25'0 0.0
2017-Sep-03 16:30N 28°09' W 015°25'0 0.0
2017-Sep-03 16:00N 28°09' W 015°25'0 0.0
2017-Sep-03 15:30N 28°09' W 015°25'0 0.0
2017-Sep-03 15:00N 28°09' W 015°25'0 0.0
2017-Sep-03 14:00N 28°09' W 015°25'0 0.0
2017-Sep-03 13:30N 28°09' W 015°25'0 0.0
2017-Sep-03 13:00N 28°09' W 015°25'0 0.0
2017-Sep-03 12:30N 28°09' W 015°25'0 0.0
2017-Sep-03 12:00N 28°09' W 015°25'0 0.0
2017-Sep-03 11:30N 28°09' W 015°25'0 0.0
2017-Sep-03 11:00N 28°09' W 015°25'0 0.0
2017-Sep-03 10:30N 28°09' W 015°25'0 0.0
2017-Sep-03 10:00N 28°09' W 015°25'0 0.0
2017-Sep-03 09:30N 28°09' W 015°25'0 0.0
2017-Sep-03 09:01N 28°09' W 015°25'0 0.0
2017-Sep-03 08:30N 28°09' W 015°25'0 0.0
2017-Sep-03 08:00N 28°09' W 015°25'0 0.0
2017-Sep-03 07:30N 28°09' W 015°25'0 0.0
2017-Sep-03 07:00N 28°09' W 015°25'0 0.0
2017-Sep-03 06:30N 28°09' W 015°25'0 0.0
2017-Sep-03 06:01N 28°09' W 015°25'0 0.0
2017-Sep-03 05:31N 28°09' W 015°25'0 0.0
2017-Sep-03 05:00N 28°09' W 015°25'0 0.0
2017-Sep-03 04:30N 28°09' W 015°25'0 0.0
2017-Sep-03 04:01N 28°09' W 015°25'0 0.0
2017-Sep-03 03:31N 28°09' W 015°25'0 0.0
2017-Sep-03 03:00N 28°09' W 015°25'0 0.0
2017-Sep-03 02:30N 28°09' W 015°25'0 0.0
2017-Sep-03 02:00N 28°09' W 015°25'0 0.0
2017-Sep-03 01:30N 28°09' W 015°25'0 0.0
2017-Sep-03 01:00N 28°09' W 015°25'0 0.0
2017-Sep-03 00:30N 28°09' W 015°25'0 0.0
2017-Sep-03 00:00N 28°09' W 015°25'0 0.0
2017-Sep-02 23:30N 28°09' W 015°25'0 0.0
2017-Sep-02 23:00N 28°09' W 015°25'0 0.0
2017-Sep-02 22:30N 28°09' W 015°25'0 0.0
2017-Sep-02 22:00N 28°09' W 015°25'0 0.0
2017-Sep-02 21:30N 28°09' W 015°25'0 0.0
2017-Sep-02 21:00N 28°09' W 015°25'0 0.0
2017-Sep-02 20:30N 28°09' W 015°25'0 0.0
2017-Sep-02 20:00N 28°09' W 015°25'0 0.0
2017-Sep-02 19:30N 28°09' W 015°25'0 0.0
2017-Sep-02 19:01N 28°09' W 015°25'0 0.0
2017-Sep-02 18:31N 28°09' W 015°25'0 0.0
2017-Sep-02 18:01N 28°09' W 015°25'0 0.0
2017-Sep-02 17:30N 28°09' W 015°25'0 0.0
2017-Sep-02 17:01N 28°09' W 015°25'0 0.0
2017-Sep-02 16:31N 28°09' W 015°25'0 0.0
2017-Sep-02 16:01N 28°09' W 015°25'0 0.0
2017-Sep-02 15:31N 28°09' W 015°25'0 0.0
2017-Sep-02 15:01N 28°09' W 015°25'0 0.0
2017-Sep-02 14:31N 28°09' W 015°25'0 0.0
2017-Sep-02 14:00N 28°09' W 015°25'0 0.0
2017-Sep-02 13:31N 28°09' W 015°25'0 0.0
2017-Sep-02 13:00N 28°09' W 015°25'0 0.0
2017-Sep-02 12:30N 28°09' W 015°25'0 0.0
2017-Sep-02 12:00N 28°09' W 015°25'0 0.0
2017-Sep-02 11:30N 28°09' W 015°25'0 0.0
2017-Sep-02 11:00N 28°09' W 015°25'0 0.0
2017-Sep-02 10:30N 28°09' W 015°25'0 0.0
2017-Sep-02 10:00N 28°09' W 015°25'0 0.0
2017-Sep-02 09:30N 28°09' W 015°25'0 0.0
2017-Sep-02 09:00N 28°09' W 015°25'0 0.0
2017-Sep-02 08:30N 28°09' W 015°25'0 0.0
2017-Sep-02 08:00N 28°09' W 015°25'0 0.0
2017-Sep-02 07:30N 28°09' W 015°25'0 0.0
2017-Sep-02 07:00N 28°09' W 015°25'0 0.0
2017-Sep-02 06:30N 28°09' W 015°25'0 0.0
2017-Sep-02 06:00N 28°09' W 015°25'0 0.0
2017-Sep-02 05:30N 28°09' W 015°25'0 0.0
2017-Sep-02 05:00N 28°09' W 015°25'0 0.0
2017-Sep-02 04:30N 28°09' W 015°25'0 0.0
2017-Sep-02 04:01N 28°09' W 015°25'0 0.0
2017-Sep-02 03:31N 28°09' W 015°25'0 0.0
2017-Sep-02 03:01N 28°09' W 015°25'0 0.0
2017-Sep-02 02:31N 28°09' W 015°25'0 0.0
2017-Sep-02 02:01N 28°09' W 015°25'0 0.0
2017-Sep-02 01:31N 28°09' W 015°25'0 0.0
2017-Sep-02 01:00N 28°09' W 015°25'0 0.0
2017-Sep-02 00:31N 28°09' W 015°25'0 0.0
2017-Sep-02 00:01N 28°09' W 015°25'0 0.0
2017-Sep-01 23:31N 28°09' W 015°25'0 0.0
2017-Sep-01 23:00N 28°09' W 015°25'  
Track history (hours):
 
Tides and Currents Weather Stations Pressure Air Temp Water Temp Dewpoint Dewpoint Depression Visibility Wind Speed Wind Dir Waves Ship Positions

Chang Rong 3

Last reported at 2017-Sep-11 22:52 UTC. Time now 2017-Nov-22 16:37 UTC.
Position N 27°50' W 015°18'.
Warning: this ship's position is months out of date.

Length 50 m.

Type: Fishing. MMSI: 412283999.

Date/timePositionNaut miles runAvg speedWind from/ knotsBaromVisibWave heightAir tempDewpointWater temp
2017-Sep-11 22:52N 27°50' W 015°18'410.5
2017-Sep-11 22:30N 27°54' W 015°18'510.4
2017-Sep-11 22:00N 27°59' W 015°18'5 9.8
2017-Sep-11 21:30N 28°04' W 015°20'5 9.5
2017-Sep-11 21:00N 28°07' W 015°24'2 3.6
2017-Sep-11 20:30N 28°09' W 015°24'0 0.0
2017-Sep-11 20:00N 28°09' W 015°24'0 0.0
2017-Sep-11 19:30N 28°09' W 015°24'0 0.0
2017-Sep-11 19:00N 28°09' W 015°24'0 0.0
2017-Sep-11 18:30N 28°09' W 015°24'0 0.0
2017-Sep-11 18:00N 28°09' W 015°24'0 0.0
2017-Sep-11 17:30N 28°09' W 015°24'0 0.0
2017-Sep-11 17:00N 28°09' W 015°24'0 0.0
2017-Sep-11 16:30N 28°09' W 015°24'0 0.0
2017-Sep-11 16:00N 28°09' W 015°24'0 0.0
2017-Sep-11 15:30N 28°09' W 015°24'0 0.7
2017-Sep-11 15:00N 28°08' W 015°25'1 1.3
2017-Sep-11 14:30N 28°08' W 015°25'0 0.8
2017-Sep-11 14:00N 28°09' W 015°25'0 0.0
2017-Sep-11 13:30N 28°09' W 015°25'0 0.0
2017-Sep-11 13:00N 28°09' W 015°25'0 0.0
2017-Sep-11 12:30N 28°09' W 015°25'0 0.0
2017-Sep-11 12:00N 28°09' W 015°25'0 0.0
2017-Sep-11 11:30N 28°09' W 015°25'0 0.0
2017-Sep-11 11:00N 28°09' W 015°25'0 0.0
2017-Sep-11 10:30N 28°09' W 015°25'0 0.0
2017-Sep-11 10:00N 28°09' W 015°25'0 0.0
2017-Sep-11 09:30N 28°09' W 015°25'0 0.0
2017-Sep-11 09:00N 28°09' W 015°25'0 0.0
2017-Sep-11 08:30N 28°09' W 015°25'0 0.0
2017-Sep-11 08:00N 28°09' W 015°25'0 0.0
2017-Sep-11 07:30N 28°09' W 015°25'0 0.0
2017-Sep-11 07:00N 28°09' W 015°25'0 0.0
2017-Sep-11 06:30N 28°09' W 015°25'0 0.0
2017-Sep-11 06:00N 28°09' W 015°25'0 0.0
2017-Sep-11 05:30N 28°09' W 015°25'0 0.0
2017-Sep-11 05:00N 28°09' W 015°25'0 0.0
2017-Sep-11 04:30N 28°09' W 015°25'0 0.0
2017-Sep-11 04:00N 28°09' W 015°25'0 0.0
2017-Sep-11 03:30N 28°09' W 015°25'0 0.0
2017-Sep-11 03:00N 28°09' W 015°25'0 0.0
2017-Sep-11 02:30N 28°09' W 015°25'0 0.0
2017-Sep-11 02:00N 28°09' W 015°25'0 0.0
2017-Sep-11 01:30N 28°09' W 015°25'0 0.0
2017-Sep-11 01:00N 28°09' W 015°25'0 0.0
2017-Sep-11 00:30N 28°09' W 015°25'0 0.0
2017-Sep-11 00:00N 28°09' W 015°25'0 0.0
2017-Sep-10 23:30N 28°09' W 015°25'0 0.0
2017-Sep-10 23:00N 28°09' W 015°25'0 0.0
2017-Sep-10 22:30N 28°09' W 015°25'0 0.0
2017-Sep-10 22:00N 28°09' W 015°25'0 0.0
2017-Sep-10 21:30N 28°09' W 015°25'0 0.0
2017-Sep-10 21:00N 28°09' W 015°25'0 0.0
2017-Sep-10 20:30N 28°09' W 015°25'0 0.0
2017-Sep-10 20:00N 28°09' W 015°25'0 0.0
2017-Sep-10 19:30N 28°09' W 015°25'0 0.0
2017-Sep-10 19:00N 28°09' W 015°25'0 0.0
2017-Sep-10 18:30N 28°09' W 015°25'0 0.0
2017-Sep-10 18:00N 28°09' W 015°25'0 0.0
2017-Sep-10 17:30N 28°09' W 015°25'0 0.0
2017-Sep-10 17:00N 28°09' W 015°25'0 0.0
2017-Sep-10 16:30N 28°09' W 015°25'0 0.0
2017-Sep-10 16:00N 28°09' W 015°25'0 0.0
2017-Sep-10 15:30N 28°09' W 015°25'0 0.0
2017-Sep-10 15:00N 28°09' W 015°25'0 0.0
2017-Sep-10 14:00N 28°09' W 015°25'0 0.0
2017-Sep-10 13:30N 28°09' W 015°25'0 0.0
2017-Sep-10 13:00N 28°09' W 015°25'0 0.0
2017-Sep-10 12:30N 28°09' W 015°25'0 0.0
2017-Sep-10 12:00N 28°09' W 015°25'0 0.0
2017-Sep-10 11:30N 28°09' W 015°25'0 0.0
2017-Sep-10 11:00N 28°09' W 015°25'0 0.0
2017-Sep-10 10:30N 28°09' W 015°25'0 0.0
2017-Sep-10 10:00N 28°09' W 015°25'0 0.0
2017-Sep-10 09:30N 28°09' W 015°25'0 0.0
2017-Sep-10 09:00N 28°09' W 015°25'0 0.0
2017-Sep-10 08:30N 28°09' W 015°25'0 0.0
2017-Sep-10 08:00N 28°09' W 015°25'0 0.0
2017-Sep-10 07:30N 28°09' W 015°25'0 0.0
2017-Sep-10 07:00N 28°09' W 015°25'0 0.0
2017-Sep-10 06:30N 28°09' W 015°25'0 0.0
2017-Sep-10 06:00N 28°09' W 015°25'0 0.0
2017-Sep-10 05:30N 28°09' W 015°25'0 0.0
2017-Sep-10 05:00N 28°09' W 015°25'0 0.0
2017-Sep-10 04:30N 28°09' W 015°25'0 0.0
2017-Sep-10 04:00N 28°09' W 015°25'0 0.0
2017-Sep-10 03:30N 28°09' W 015°25'0 0.0
2017-Sep-10 03:00N 28°09' W 015°25'0 0.0
2017-Sep-10 02:30N 28°09' W 015°25'0 0.0
2017-Sep-10 02:00N 28°09' W 015°25'0 0.0
2017-Sep-10 01:30N 28°09' W 015°25'0 0.0
2017-Sep-10 01:00N 28°09' W 015°25'0 0.0
2017-Sep-10 00:30N 28°09' W 015°25'0 0.0
2017-Sep-10 00:00N 28°09' W 015°25'0 0.0
2017-Sep-09 23:30N 28°09' W 015°25'0 0.0
2017-Sep-09 23:00N 28°09' W 015°25'0 0.0
2017-Sep-09 22:30N 28°09' W 015°25'0 0.0
2017-Sep-09 22:00N 28°09' W 015°25'0 0.0
2017-Sep-09 21:30N 28°09' W 015°25'0 0.0
2017-Sep-09 21:00N 28°09' W 015°25'0 0.0
2017-Sep-09 20:30N 28°09' W 015°25'0 0.0
2017-Sep-09 20:00N 28°09' W 015°25'0 0.0
2017-Sep-09 19:30N 28°09' W 015°25'0 0.0
2017-Sep-09 19:00N 28°09' W 015°25'0 0.0
2017-Sep-09 18:30N 28°09' W 015°25'0 0.0
2017-Sep-09 18:00N 28°09' W 015°25'0 0.0
2017-Sep-09 17:30N 28°09' W 015°25'0 0.0
2017-Sep-09 17:00N 28°09' W 015°25'0 0.0
2017-Sep-09 16:30N 28°09' W 015°25'0 0.0
2017-Sep-09 16:00N 28°09' W 015°25'0 0.0
2017-Sep-09 15:30N 28°09' W 015°25'0 0.0
2017-Sep-09 15:00N 28°09' W 015°25'0 0.0
2017-Sep-09 14:30N 28°09' W 015°25'0 0.0
2017-Sep-09 14:00N 28°09' W 015°25'0 0.0
2017-Sep-09 13:30N 28°09' W 015°25'0 0.0
2017-Sep-09 13:00N 28°09' W 015°25'0 0.0
2017-Sep-09 12:30N 28°09' W 015°25'0 0.0
2017-Sep-09 12:00N 28°09' W 015°25'0 0.0
2017-Sep-09 11:30N 28°09' W 015°25'0 0.0
2017-Sep-09 11:00N 28°09' W 015°25'0 0.0
2017-Sep-09 10:30N 28°09' W 015°25'0 0.0
2017-Sep-09 10:00N 28°09' W 015°25'0 0.0
2017-Sep-09 09:30N 28°09' W 015°25'0 0.0
2017-Sep-09 09:00N 28°09' W 015°25'0 0.0
2017-Sep-09 08:30N 28°09' W 015°25'0 0.0
2017-Sep-09 08:00N 28°09' W 015°25'0 0.0
2017-Sep-09 07:30N 28°09' W 015°25'0 0.0
2017-Sep-09 07:00N 28°09' W 015°25'0 0.0
2017-Sep-09 06:30N 28°09' W 015°25'0 0.0
2017-Sep-09 06:00N 28°09' W 015°25'0 0.0
2017-Sep-09 05:30N 28°09' W 015°25'0 0.0
2017-Sep-09 05:00N 28°09' W 015°25'0 0.0
2017-Sep-09 04:30N 28°09' W 015°25'0 0.0
2017-Sep-09 04:00N 28°09' W 015°25'0 0.0
2017-Sep-09 03:30N 28°09' W 015°25'0 0.0
2017-Sep-09 03:00N 28°09' W 015°25'0 0.0
2017-Sep-09 02:30N 28°09' W 015°25'0 0.0
2017-Sep-09 02:00N 28°09' W 015°25'0 0.0
2017-Sep-09 01:30N 28°09' W 015°25'0 0.0
2017-Sep-09 01:00N 28°09' W 015°25'0 0.0
2017-Sep-09 00:30N 28°09' W 015°25'0 0.0
2017-Sep-09 00:00N 28°09' W 015°25'0 0.0
2017-Sep-08 23:30N 28°09' W 015°25'0 0.0
2017-Sep-08 23:00N 28°09' W 015°25'0 0.0
2017-Sep-08 22:30N 28°09' W 015°25'0 0.0
2017-Sep-08 22:00N 28°09' W 015°25'0 0.0
2017-Sep-08 21:30N 28°09' W 015°25'0 0.0
2017-Sep-08 21:00N 28°09' W 015°25'0 0.0
2017-Sep-08 20:30N 28°09' W 015°25'0 0.0
2017-Sep-08 20:00N 28°09' W 015°25'0 0.0
2017-Sep-08 19:30N 28°09' W 015°25'0 0.0
2017-Sep-08 19:00N 28°09' W 015°25'0 0.0
2017-Sep-08 18:30N 28°09' W 015°25'0 0.0
2017-Sep-08 18:00N 28°09' W 015°25'0 0.0
2017-Sep-08 17:30N 28°09' W 015°25'0 0.0
2017-Sep-08 17:00N 28°09' W 015°25'0 0.0
2017-Sep-08 16:30N 28°09' W 015°25'0 0.0
2017-Sep-08 16:00N 28°09' W 015°25'0 0.0
2017-Sep-08 15:30N 28°09' W 015°25'0 0.0
2017-Sep-08 15:00N 28°09' W 015°25'0 0.0
2017-Sep-08 14:30N 28°09' W 015°25'0 0.0
2017-Sep-08 14:00N 28°09' W 015°25'0 0.0
2017-Sep-08 13:30N 28°09' W 015°25'0 0.0
2017-Sep-08 13:00N 28°09' W 015°25'0 0.0
2017-Sep-08 12:30N 28°09' W 015°25'0 0.0
2017-Sep-08 12:00N 28°09' W 015°25'0 0.0
2017-Sep-08 11:30N 28°09' W 015°25'0 0.0
2017-Sep-08 11:00N 28°09' W 015°25'0 0.0
2017-Sep-08 10:30N 28°09' W 015°25'0 0.0
2017-Sep-08 10:00N 28°09' W 015°25'0 0.0
2017-Sep-08 09:30N 28°09' W 015°25'0 0.0
2017-Sep-08 09:00N 28°09' W 015°25'0 0.0
2017-Sep-08 08:30N 28°09' W 015°25'0 0.0
2017-Sep-08 08:00N 28°09' W 015°25'0 0.0
2017-Sep-08 07:30N 28°09' W 015°25'0 0.0
2017-Sep-08 07:00N 28°09' W 015°25'0 0.0
2017-Sep-08 06:30N 28°09' W 015°25'0 0.0
2017-Sep-08 06:00N 28°09' W 015°25'0 0.0
2017-Sep-08 05:30N 28°09' W 015°25'0 0.0
2017-Sep-08 05:00N 28°09' W 015°25'0 0.0
2017-Sep-08 04:30N 28°09' W 015°25'0 0.0
2017-Sep-08 04:00N 28°09' W 015°25'0 0.0
2017-Sep-08 03:30N 28°09' W 015°25'0 0.0
2017-Sep-08 03:00N 28°09' W 015°25'0 0.0
2017-Sep-08 02:30N 28°09' W 015°25'0 0.0
2017-Sep-08 02:00N 28°09' W 015°25'0 0.0
2017-Sep-08 01:30N 28°09' W 015°25'0 0.0
2017-Sep-08 01:00N 28°09' W 015°25'0 0.0
2017-Sep-08 00:30N 28°09' W 015°25'0 0.0
2017-Sep-08 00:00N 28°09' W 015°25'0 0.0
2017-Sep-07 23:30N 28°09' W 015°25'0 0.0
2017-Sep-07 23:00N 28°09' W 015°25'0 0.0
2017-Sep-07 22:30N 28°09' W 015°25'0 0.0
2017-Sep-07 22:00N 28°09' W 015°25'0 0.0
2017-Sep-07 21:30N 28°09' W 015°25'0 0.0
2017-Sep-07 21:00N 28°09' W 015°25'0 0.0
2017-Sep-07 20:30N 28°09' W 015°25'0 0.0
2017-Sep-07 20:00N 28°09' W 015°25'0 0.0
2017-Sep-07 19:30N 28°09' W 015°25'0 0.0
2017-Sep-07 19:00N 28°09' W 015°25'0 0.0
2017-Sep-07 18:30N 28°09' W 015°25'0 0.0
2017-Sep-07 18:00N 28°09' W 015°25'0 0.0
2017-Sep-07 17:30N 28°09' W 015°25'0 0.0
2017-Sep-07 17:00N 28°09' W 015°25'0 0.0
2017-Sep-07 16:30N 28°09' W 015°25'0 0.0
2017-Sep-07 16:00N 28°09' W 015°25'0 0.0
2017-Sep-07 15:30N 28°09' W 015°25'0 0.0
2017-Sep-07 15:00N 28°09' W 015°25'0 0.0
2017-Sep-07 14:30N 28°09' W 015°25'0 0.0
2017-Sep-07 14:00N 28°09' W 015°25'0 0.0
2017-Sep-07 13:30N 28°09' W 015°25'0 0.0
2017-Sep-07 13:00N 28°09' W 015°25'0 0.0
2017-Sep-07 12:30N 28°09' W 015°25'0 0.0
2017-Sep-07 11:59N 28°09' W 015°25'0 0.0
2017-Sep-07 11:30N 28°09' W 015°25'0 0.0
2017-Sep-07 11:00N 28°09' W 015°25'0 0.0
2017-Sep-07 10:30N 28°09' W 015°25'0 0.0
2017-Sep-07 10:00N 28°09' W 015°25'0 0.0
2017-Sep-07 09:30N 28°09' W 015°25'0 0.0
2017-Sep-07 09:00N 28°09' W 015°25'0 0.0
2017-Sep-07 08:30N 28°09' W 015°25'0 0.0
2017-Sep-07 08:00N 28°09' W 015°25'0 0.0
2017-Sep-07 07:30N 28°09' W 015°25'0 0.0
2017-Sep-07 07:00N 28°09' W 015°25'0 0.0
2017-Sep-07 06:30N 28°09' W 015°25'0 0.0
2017-Sep-07 06:00N 28°09' W 015°25'0 0.0
2017-Sep-07 05:30N 28°09' W 015°25'0 0.0
2017-Sep-07 05:00N 28°09' W 015°25'0 0.0
2017-Sep-07 04:30N 28°09' W 015°25'0 0.0
2017-Sep-07 04:00N 28°09' W 015°25'0 0.0
2017-Sep-07 03:30N 28°09' W 015°25'0 0.0
2017-Sep-07 03:00N 28°09' W 015°25'0 0.0
2017-Sep-07 02:30N 28°09' W 015°25'0 0.0
2017-Sep-07 02:00N 28°09' W 015°25'0 0.0
2017-Sep-07 01:30N 28°09' W 015°25'0 0.0
2017-Sep-07 01:00N 28°09' W 015°25'0 0.0
2017-Sep-07 00:30N 28°09' W 015°25'0 0.0
2017-Sep-07 00:00N 28°09' W 015°25'0 0.0
2017-Sep-06 23:30N 28°09' W 015°25'0 0.0
2017-Sep-06 23:00N 28°09' W 015°25'0 0.0
2017-Sep-06 22:30N 28°09' W 015°25'0 0.0
2017-Sep-06 22:00N 28°09' W 015°25'0 0.0
2017-Sep-06 21:30N 28°09' W 015°25'0 0.0
2017-Sep-06 21:00N 28°09' W 015°25'0 0.0
2017-Sep-06 20:30N 28°09' W 015°25'0 0.0
2017-Sep-06 20:00N 28°09' W 015°25'0 0.0
2017-Sep-06 19:30N 28°09' W 015°25'0 0.0
2017-Sep-06 19:00N 28°09' W 015°25'0 0.0
2017-Sep-06 18:30N 28°09' W 015°25'0 0.0
2017-Sep-06 18:00N 28°09' W 015°25'0 0.0
2017-Sep-06 17:30N 28°09' W 015°25'0 0.0
2017-Sep-06 17:00N 28°09' W 015°25'0 0.0
2017-Sep-06 16:30N 28°09' W 015°25'0 0.0
2017-Sep-06 16:00N 28°09' W 015°25'0 0.0
2017-Sep-06 15:30N 28°09' W 015°25'0 0.0
2017-Sep-06 15:00N 28°09' W 015°25'0 0.0
2017-Sep-06 14:30N 28°09' W 015°25'0 0.0
2017-Sep-06 14:00N 28°09' W 015°25'0 0.0
2017-Sep-06 13:30N 28°09' W 015°25'0 0.0
2017-Sep-06 13:00N 28°09' W 015°25'0 0.0
2017-Sep-06 12:30N 28°09' W 015°25'0 0.0
2017-Sep-06 12:00N 28°09' W 015°25'0 0.0
2017-Sep-06 11:30N 28°09' W 015°25'0 0.0
2017-Sep-06 11:00N 28°09' W 015°25'0 0.0
2017-Sep-06 10:30N 28°09' W 015°25'0 0.0
2017-Sep-06 10:00N 28°09' W 015°25'0 0.0
2017-Sep-06 09:30N 28°09' W 015°25'0 0.0
2017-Sep-06 09:00N 28°09' W 015°25'0 0.0
2017-Sep-06 08:30N 28°09' W 015°25'0 0.0
2017-Sep-06 08:00N 28°09' W 015°25'0 0.0
2017-Sep-06 07:30N 28°09' W 015°25'0 0.0
2017-Sep-06 07:00N 28°09' W 015°25'0 0.0
2017-Sep-06 06:30N 28°09' W 015°25'0 0.0
2017-Sep-06 06:00N 28°09' W 015°25'0 0.0
2017-Sep-06 05:30N 28°09' W 015°25'0 0.0
2017-Sep-06 05:00N 28°09' W 015°25'0 0.0
2017-Sep-06 04:30N 28°09' W 015°25'0 0.0
2017-Sep-06 04:00N 28°09' W 015°25'0 0.0
2017-Sep-06 03:30N 28°09' W 015°25'0 0.0
2017-Sep-06 03:00N 28°09' W 015°25'0 0.0
2017-Sep-06 02:30N 28°09' W 015°25'0 0.0
2017-Sep-06 02:00N 28°09' W 015°25'0 0.0
2017-Sep-06 01:30N 28°09' W 015°25'0 0.0
2017-Sep-06 01:00N 28°09' W 015°25'0 0.0
2017-Sep-06 00:30N 28°09' W 015°25'0 0.0
2017-Sep-06 00:00N 28°09' W 015°25'0 0.0
2017-Sep-05 23:30N 28°09' W 015°25'0 0.0
2017-Sep-05 23:00N 28°09' W 015°25'0 0.0
2017-Sep-05 22:30N 28°09' W 015°25'0 0.0
2017-Sep-05 22:00N 28°09' W 015°25'0 0.0
2017-Sep-05 21:30N 28°09' W 015°25'0 0.0
2017-Sep-05 21:00N 28°09' W 015°25'0 0.0
2017-Sep-05 20:30N 28°09' W 015°25'0 0.0
2017-Sep-05 20:00N 28°09' W 015°25'0 0.0
2017-Sep-05 19:30N 28°09' W 015°25'0 0.0
2017-Sep-05 19:00N 28°09' W 015°25'0 0.0
2017-Sep-05 18:30N 28°09' W 015°25'0 0.0
2017-Sep-05 18:00N 28°09' W 015°25'0 0.0
2017-Sep-05 17:30N 28°09' W 015°25'0 0.0
2017-Sep-05 17:00N 28°09' W 015°25'0 0.0
2017-Sep-05 16:30N 28°09' W 015°25'0 0.0
2017-Sep-05 16:00N 28°09' W 015°25'0 0.0
2017-Sep-05 15:30N 28°09' W 015°25'0 0.0
2017-Sep-05 15:00N 28°09' W 015°25'0 0.0
2017-Sep-05 14:30N 28°09' W 015°25'0 0.0
2017-Sep-05 14:00N 28°09' W 015°25'0 0.0
2017-Sep-05 13:30N 28°09' W 015°25'0 0.0
2017-Sep-05 13:00N 28°09' W 015°25'0 0.0
2017-Sep-05 12:30N 28°09' W 015°25'0 0.0
2017-Sep-05 12:00N 28°09' W 015°25'0 0.0
2017-Sep-05 11:30N 28°09' W 015°25'0 0.0
2017-Sep-05 11:00N 28°09' W 015°25'0 0.0
2017-Sep-05 10:30N 28°09' W 015°25'0 0.0
2017-Sep-05 10:00N 28°09' W 015°25'0 0.0
2017-Sep-05 09:30N 28°09' W 015°25'0 0.0
2017-Sep-05 09:00N 28°09' W 015°25'0 0.0
2017-Sep-05 08:30N 28°09' W 015°25'0 0.0
2017-Sep-05 08:00N 28°09' W 015°25'0 0.0
2017-Sep-05 07:30N 28°09' W 015°25'0 0.0
2017-Sep-05 07:00N 28°09' W 015°25'0 0.0
2017-Sep-05 06:30N 28°09' W 015°25'0 0.0
2017-Sep-05 06:00N 28°09' W 015°25'0 0.0
2017-Sep-05 05:30N 28°09' W 015°25'0 0.0
2017-Sep-05 05:00N 28°09' W 015°25'0 0.0
2017-Sep-05 04:30N 28°09' W 015°25'0 0.0
2017-Sep-05 04:00N 28°09' W 015°25'0 0.0
2017-Sep-05 03:30N 28°09' W 015°25'0 0.0
2017-Sep-05 03:00N 28°09' W 015°25'0 0.0
2017-Sep-05 02:30N 28°09' W 015°25'0 0.0
2017-Sep-05 02:00N 28°09' W 015°25'0 0.0
2017-Sep-05 01:30N 28°09' W 015°25'0 0.0
2017-Sep-05 01:00N 28°09' W 015°25'0 0.0
2017-Sep-05 00:30N 28°09' W 015°25'0 0.0
2017-Sep-05 00:00N 28°09' W 015°25'0 0.0
2017-Sep-04 23:30N 28°09' W 015°25'0 0.0
2017-Sep-04 23:00N 28°09' W 015°25'0 0.0
2017-Sep-04 22:30N 28°09' W 015°25'0 0.0
2017-Sep-04 22:00N 28°09' W 015°25'0 0.0
2017-Sep-04 21:30N 28°09' W 015°25'0 0.0
2017-Sep-04 21:00N 28°09' W 015°25'0 0.0
2017-Sep-04 20:30N 28°09' W 015°25'0 0.0
2017-Sep-04 20:00N 28°09' W 015°25'0 0.0
2017-Sep-04 19:30N 28°09' W 015°25'0 0.0
2017-Sep-04 19:00N 28°09' W 015°25'0 0.0
2017-Sep-04 18:30N 28°09' W 015°25'0 0.0
2017-Sep-04 18:00N 28°09' W 015°25'0 0.0
2017-Sep-04 17:30N 28°09' W 015°25'0 0.0
2017-Sep-04 17:00N 28°09' W 015°25'0 0.0
2017-Sep-04 16:30N 28°09' W 015°25'0 0.0
2017-Sep-04 16:00N 28°09' W 015°25'0 0.0
2017-Sep-04 15:30N 28°09' W 015°25'0 0.0
2017-Sep-04 15:00N 28°09' W 015°25'0 0.0
2017-Sep-04 14:30N 28°09' W 015°25'0 0.0
2017-Sep-04 14:00N 28°09' W 015°25'0 0.0
2017-Sep-04 13:30N 28°09' W 015°25'0 0.0
2017-Sep-04 13:00N 28°09' W 015°25'0 0.0
2017-Sep-04 12:30N 28°09' W 015°25'0 0.0
2017-Sep-04 12:00N 28°09' W 015°25'0 0.0
2017-Sep-04 11:30N 28°09' W 015°25'0 0.0
2017-Sep-04 11:00N 28°09' W 015°25'0 0.0
2017-Sep-04 10:30N 28°09' W 015°25'0 0.0
2017-Sep-04 10:00N 28°09' W 015°25'0 0.0
2017-Sep-04 09:30N 28°09' W 015°25'0 0.0
2017-Sep-04 09:00N 28°09' W 015°25'0 0.0
2017-Sep-04 08:30N 28°09' W 015°25'0 0.0
2017-Sep-04 08:00N 28°09' W 015°25'0 0.0
2017-Sep-04 07:30N 28°09' W 015°25'0 0.0
2017-Sep-04 07:00N 28°09' W 015°25'0 0.0
2017-Sep-04 06:30N 28°09' W 015°25'0 0.0
2017-Sep-04 06:00N 28°09' W 015°25'0 0.0
2017-Sep-04 05:30N 28°09' W 015°25'0 0.0
2017-Sep-04 05:00N 28°09' W 015°25'0 0.0
2017-Sep-04 04:30N 28°09' W 015°25'0 0.0
2017-Sep-04 04:00N 28°09' W 015°25'0 0.0
2017-Sep-04 03:30N 28°09' W 015°25'0 0.0
2017-Sep-04 03:00N 28°09' W 015°25'0 0.0
2017-Sep-04 02:30N 28°09' W 015°25'0 0.0
2017-Sep-04 02:00N 28°09' W 015°25'0 0.0
2017-Sep-04 01:30N 28°09' W 015°25'0 0.0
2017-Sep-04 01:00N 28°09' W 015°25'0 0.0
2017-Sep-04 00:30N 28°09' W 015°25'0 0.0
2017-Sep-04 00:00N 28°09' W 015°25'0 0.0
2017-Sep-03 23:31N 28°09' W 015°25'0 0.0
2017-Sep-03 23:01N 28°09' W 015°25'0 0.0
2017-Sep-03 22:30N 28°09' W 015°25'0 0.0
2017-Sep-03 22:01N 28°09' W 015°25'0 0.0
2017-Sep-03 21:30N 28°09' W 015°25'0 0.0
2017-Sep-03 21:01N 28°09' W 015°25'0 0.0
2017-Sep-03 20:31N 28°09' W 015°25'0 0.0
2017-Sep-03 20:01N 28°09' W 015°25'0 0.0
2017-Sep-03 19:31N 28°09' W 015°25'0 0.0
2017-Sep-03 19:01N 28°09' W 015°25'0 0.0
2017-Sep-03 18:31N 28°09' W 015°25'0 0.0
2017-Sep-03 18:00N 28°09' W 015°25'0 0.0
2017-Sep-03 17:30N 28°09' W 015°25'0 0.0
2017-Sep-03 17:00N 28°09' W 015°25'0 0.0
2017-Sep-03 16:30N 28°09' W 015°25'0 0.0
2017-Sep-03 16:00N 28°09' W 015°25'0 0.0
2017-Sep-03 15:30N 28°09' W 015°25'0 0.0
2017-Sep-03 15:00N 28°09' W 015°25'0 0.0
2017-Sep-03 14:00N 28°09' W 015°25'0 0.0
2017-Sep-03 13:30N 28°09' W 015°25'0 0.0
2017-Sep-03 13:00N 28°09' W 015°25'0 0.0
2017-Sep-03 12:30N 28°09' W 015°25'0 0.0
2017-Sep-03 12:00N 28°09' W 015°25'0 0.0
2017-Sep-03 11:30N 28°09' W 015°25'0 0.0
2017-Sep-03 11:00N 28°09' W 015°25'0 0.0
2017-Sep-03 10:30N 28°09' W 015°25'0 0.0
2017-Sep-03 10:00N 28°09' W 015°25'0 0.0
2017-Sep-03 09:30N 28°09' W 015°25'0 0.0
2017-Sep-03 09:01N 28°09' W 015°25'0 0.0
2017-Sep-03 08:30N 28°09' W 015°25'0 0.0
2017-Sep-03 08:00N 28°09' W 015°25'0 0.0
2017-Sep-03 07:30N 28°09' W 015°25'0 0.0
2017-Sep-03 07:00N 28°09' W 015°25'0 0.0
2017-Sep-03 06:30N 28°09' W 015°25'0 0.0
2017-Sep-03 06:01N 28°09' W 015°25'0 0.0
2017-Sep-03 05:31N 28°09' W 015°25'0 0.0
2017-Sep-03 05:00N 28°09' W 015°25'0 0.0
2017-Sep-03 04:30N 28°09' W 015°25'0 0.0
2017-Sep-03 04:01N 28°09' W 015°25'0 0.0
2017-Sep-03 03:31N 28°09' W 015°25'0 0.0
2017-Sep-03 03:00N 28°09' W 015°25'0 0.0
2017-Sep-03 02:30N 28°09' W 015°25'0 0.0
2017-Sep-03 02:00N 28°09' W 015°25'0 0.0
2017-Sep-03 01:30N 28°09' W 015°25'0 0.0
2017-Sep-03 01:00N 28°09' W 015°25'0 0.0
2017-Sep-03 00:30N 28°09' W 015°25'0 0.0
2017-Sep-03 00:00N 28°09' W 015°25'0 0.0
2017-Sep-02 23:30N 28°09' W 015°25'0 0.0
2017-Sep-02 23:00N 28°09' W 015°25'0 0.0
2017-Sep-02 22:30N 28°09' W 015°25'0 0.0
2017-Sep-02 22:00N 28°09' W 015°25'0 0.0
2017-Sep-02 21:30N 28°09' W 015°25'0 0.0
2017-Sep-02 21:00N 28°09' W 015°25'0 0.0
2017-Sep-02 20:30N 28°09' W 015°25'0 0.0
2017-Sep-02 20:00N 28°09' W 015°25'0 0.0
2017-Sep-02 19:30N 28°09' W 015°25'0 0.0
2017-Sep-02 19:01N 28°09' W 015°25'0 0.0
2017-Sep-02 18:31N 28°09' W 015°25'0 0.0
2017-Sep-02 18:01N 28°09' W 015°25'0 0.0
2017-Sep-02 17:30N 28°09' W 015°25'0 0.0
2017-Sep-02 17:01N 28°09' W 015°25'0 0.0
2017-Sep-02 16:31N 28°09' W 015°25'0 0.0
2017-Sep-02 16:01N 28°09' W 015°25'0 0.0
2017-Sep-02 15:31N 28°09' W 015°25'0 0.0
2017-Sep-02 15:01N 28°09' W 015°25'0 0.0
2017-Sep-02 14:31N 28°09' W 015°25'0 0.0
2017-Sep-02 14:00N 28°09' W 015°25'0 0.0
2017-Sep-02 13:31N 28°09' W 015°25'0 0.0
2017-Sep-02 13:00N 28°09' W 015°25'0 0.0
2017-Sep-02 12:30N 28°09' W 015°25'0 0.0
2017-Sep-02 12:00N 28°09' W 015°25'0 0.0
2017-Sep-02 11:30N 28°09' W 015°25'0 0.0
2017-Sep-02 11:00N 28°09' W 015°25'0 0.0
2017-Sep-02 10:30N 28°09' W 015°25'0 0.0
2017-Sep-02 10:00N 28°09' W 015°25'0 0.0
2017-Sep-02 09:30N 28°09' W 015°25'0 0.0
2017-Sep-02 09:00N 28°09' W 015°25'0 0.0
2017-Sep-02 08:30N 28°09' W 015°25'0 0.0
2017-Sep-02 08:00N 28°09' W 015°25'0 0.0
2017-Sep-02 07:30N 28°09' W 015°25'0 0.0
2017-Sep-02 07:00N 28°09' W 015°25'0 0.0
2017-Sep-02 06:30N 28°09' W 015°25'0 0.0
2017-Sep-02 06:00N 28°09' W 015°25'0 0.0
2017-Sep-02 05:30N 28°09' W 015°25'0 0.0
2017-Sep-02 05:00N 28°09' W 015°25'0 0.0
2017-Sep-02 04:30N 28°09' W 015°25'0 0.0
2017-Sep-02 04:01N 28°09' W 015°25'0 0.0
2017-Sep-02 03:31N 28°09' W 015°25'0 0.0
2017-Sep-02 03:01N 28°09' W 015°25'0 0.0
2017-Sep-02 02:31N 28°09' W 015°25'0 0.0
2017-Sep-02 02:01N 28°09' W 015°25'0 0.0
2017-Sep-02 01:31N 28°09' W 015°25'0 0.0
2017-Sep-02 01:00N 28°09' W 015°25'0 0.0
2017-Sep-02 00:31N 28°09' W 015°25'0 0.0
2017-Sep-02 00:01N 28°09' W 015°25'0 0.0
2017-Sep-01 23:31N 28°09' W 015°25'0 0.0
2017-Sep-01 23:00N 28°09' W 015°25'  

Dump ship's entire track history